createdAt,value
2023-12-02T00:01:59.610Z,8.10
2023-12-02T00:04:26.058Z,7.27
2023-12-02T00:06:52.457Z,6.13
2023-12-02T00:09:18.849Z,7.80
2023-12-02T00:11:49.377Z,8.55
2023-12-02T00:14:15.733Z,8.45
2023-12-02T00:16:43.921Z,6.45
2023-12-02T00:19:10.387Z,6.88
2023-12-02T00:21:36.795Z,8.10
2023-12-02T00:24:03.336Z,7.03
2023-12-02T00:26:29.790Z,6.78
2023-12-02T00:28:56.203Z,6.82
2023-12-02T00:31:22.603Z,8.98
2023-12-02T00:33:49.068Z,10.00
2023-12-02T00:36:15.538Z,11.15
2023-12-02T00:38:41.937Z,10.52
2023-12-02T00:41:11.603Z,6.72
2023-12-02T00:43:38.057Z,8.55
2023-12-02T00:46:04.556Z,7.07
2023-12-02T00:48:31.005Z,7.10
2023-12-02T00:50:57.453Z,7.43
2023-12-02T00:53:23.880Z,7.35
2023-12-02T00:55:50.234Z,8.77
2023-12-02T00:58:22.205Z,7.80
2023-12-02T01:00:54.297Z,9.65
2023-12-02T01:03:20.750Z,8.00
2023-12-02T01:05:47.222Z,8.00
2023-12-02T01:08:13.704Z,7.80
2023-12-02T01:10:40.060Z,7.15
2023-12-02T01:13:06.454Z,9.18
2023-12-02T01:15:32.919Z,7.15
2023-12-02T01:17:59.430Z,8.00
2023-12-02T01:20:25.882Z,7.50
2023-12-02T01:22:52.258Z,6.93
2023-12-02T01:25:18.626Z,7.88
2023-12-02T01:27:45.066Z,7.57
2023-12-02T01:30:11.697Z,7.47
2023-12-02T01:32:38.386Z,7.43
2023-12-02T01:35:04.960Z,7.20
2023-12-02T01:37:31.313Z,7.97
2023-12-02T01:39:57.915Z,7.85
2023-12-02T01:42:24.358Z,9.02
2023-12-02T01:44:50.775Z,7.85
2023-12-02T01:47:17.107Z,8.98
2023-12-02T01:49:44.839Z,10.20
2023-12-02T01:52:11.629Z,8.75
2023-12-02T01:54:38.240Z,7.65
2023-12-02T01:57:04.707Z,7.88
2023-12-02T01:59:31.583Z,7.72
2023-12-02T02:01:57.944Z,8.13
2023-12-02T02:04:25.133Z,8.23
2023-12-02T02:06:51.569Z,7.78
2023-12-02T02:09:17.930Z,7.80
2023-12-02T02:11:44.323Z,7.72
2023-12-02T02:14:10.667Z,7.93
2023-12-02T02:16:37.185Z,7.68
2023-12-02T02:19:03.729Z,8.18
2023-12-02T02:21:30.308Z,7.85
2023-12-02T02:23:56.712Z,8.00
2023-12-02T02:26:23.090Z,9.35
2023-12-02T02:28:49.437Z,8.80
2023-12-02T02:31:15.819Z,7.32
2023-12-02T02:33:42.253Z,7.40
2023-12-02T02:36:09.178Z,7.45
2023-12-02T02:38:35.591Z,7.85
2023-12-02T02:41:01.977Z,7.43
2023-12-02T02:43:28.359Z,8.00
2023-12-02T02:45:54.927Z,8.75
2023-12-02T02:48:21.554Z,8.00
2023-12-02T02:50:47.985Z,8.25
2023-12-02T02:53:14.365Z,9.23
2023-12-02T02:55:40.850Z,8.38
2023-12-02T02:58:07.465Z,8.18
2023-12-02T03:00:34.357Z,9.57
2023-12-02T03:03:00.886Z,9.57
2023-12-02T03:05:28.087Z,8.50
2023-12-02T03:07:54.671Z,9.60
2023-12-02T03:10:21.084Z,9.98
2023-12-02T03:12:47.556Z,10.25
2023-12-02T03:15:14.178Z,9.33
2023-12-02T03:17:40.654Z,8.95
2023-12-02T03:20:07.616Z,9.25
2023-12-02T03:22:34.055Z,8.73
2023-12-02T03:25:01.167Z,9.00
2023-12-02T03:27:27.636Z,10.18
2023-12-02T03:29:54.084Z,9.32
2023-12-02T03:32:20.453Z,9.60
2023-12-02T03:34:46.836Z,9.65
2023-12-02T03:37:13.307Z,9.57
2023-12-02T03:39:39.786Z,9.57
2023-12-02T03:42:06.261Z,9.15
2023-12-02T03:44:32.649Z,9.93
2023-12-02T03:46:59.027Z,9.75
2023-12-02T03:49:25.439Z,10.75
2023-12-02T03:51:51.853Z,10.35
2023-12-02T03:54:18.259Z,11.70
2023-12-02T03:56:45.160Z,11.05
2023-12-02T03:59:12.453Z,9.50
2023-12-02T04:01:38.850Z,10.35
2023-12-02T04:04:05.332Z,11.05
2023-12-02T04:06:31.833Z,10.20
2023-12-02T04:08:58.339Z,10.73
2023-12-02T04:11:24.747Z,10.95
2023-12-02T04:13:51.108Z,11.05
2023-12-02T04:16:17.467Z,11.15
2023-12-02T04:18:43.902Z,10.38
2023-12-02T04:21:10.587Z,10.60
2023-12-02T04:23:38.181Z,13.00
2023-12-02T04:26:04.594Z,12.07
2023-12-02T04:28:31.126Z,12.40
2023-12-02T04:30:58.308Z,13.15
2023-12-02T04:33:25.136Z,12.18
2023-12-02T04:35:51.579Z,14.02
2023-12-02T04:38:19.046Z,11.43
2023-12-02T04:40:45.397Z,13.00
2023-12-02T04:43:11.762Z,12.80
2023-12-02T04:45:38.208Z,13.25
2023-12-02T04:48:04.761Z,17.48
2023-12-02T04:50:31.203Z,14.00
2023-12-02T04:52:58.134Z,15.20
2023-12-02T04:55:24.519Z,16.15
2023-12-02T04:57:50.876Z,14.32
2023-12-02T05:00:18.049Z,14.50
2023-12-02T05:02:44.863Z,15.88
2023-12-02T05:05:11.433Z,15.63
2023-12-02T05:07:38.220Z,16.52
2023-12-02T05:10:05.947Z,15.60
2023-12-02T05:12:32.670Z,15.38
2023-12-02T05:14:59.189Z,18.77
2023-12-02T05:17:25.568Z,17.23
2023-12-02T05:19:52.008Z,17.90
2023-12-02T05:22:18.380Z,17.73
2023-12-02T05:24:44.791Z,16.73
2023-12-02T05:27:12.030Z,19.67
2023-12-02T05:29:38.429Z,17.77
2023-12-02T05:32:04.998Z,17.63
2023-12-02T05:34:35.664Z,17.08
2023-12-02T05:37:02.094Z,17.80
2023-12-02T05:39:28.524Z,15.45
2023-12-02T05:41:55.228Z,16.75
2023-12-02T05:44:21.644Z,18.07
2023-12-02T05:46:47.989Z,15.75
2023-12-02T05:49:14.432Z,18.13
2023-12-02T05:51:40.961Z,11.85
2023-12-02T05:54:08.174Z,13.88
2023-12-02T05:56:34.535Z,14.73
2023-12-02T05:59:00.913Z,18.38
2023-12-02T06:01:28.131Z,17.45
2023-12-02T06:03:55.767Z,18.70
2023-12-02T06:06:22.406Z,18.73
2023-12-02T06:08:48.884Z,16.98
2023-12-02T06:11:15.305Z,16.13
2023-12-02T06:13:41.692Z,15.40
2023-12-02T06:16:08.185Z,17.43
2023-12-02T06:18:34.623Z,18.20
2023-12-02T06:21:01.091Z,19.13
2023-12-02T06:23:27.450Z,18.95
2023-12-02T06:25:53.877Z,19.83
2023-12-02T06:28:21.464Z,18.57
2023-12-02T06:30:47.930Z,20.35
2023-12-02T06:33:14.329Z,21.02
2023-12-02T06:35:40.746Z,19.52
2023-12-02T06:38:07.152Z,19.42
2023-12-02T06:40:33.594Z,20.88
2023-12-02T06:42:59.950Z,19.83
2023-12-02T06:45:26.361Z,20.90
2023-12-02T06:47:52.787Z,20.05
2023-12-02T06:50:19.158Z,19.45
2023-12-02T06:52:45.519Z,21.50
2023-12-02T06:57:41.941Z,20.58
2023-12-02T07:00:10.657Z,19.98
2023-12-02T07:02:37.106Z,21.27
2023-12-02T07:05:03.605Z,21.63
2023-12-02T07:07:30.020Z,21.73
2023-12-02T07:09:56.486Z,21.92
2023-12-02T07:12:22.959Z,23.45
2023-12-02T07:14:49.389Z,21.92
2023-12-02T07:17:15.763Z,20.50
2023-12-02T07:19:42.147Z,23.40
2023-12-02T07:22:08.532Z,22.38
2023-12-02T07:24:34.935Z,22.55
2023-12-02T07:27:01.349Z,22.33
2023-12-02T07:31:57.087Z,22.10
2023-12-02T07:34:23.488Z,23.83
2023-12-02T07:36:49.895Z,23.70
2023-12-02T07:39:16.279Z,24.45
2023-12-02T07:41:43.534Z,20.70
2023-12-02T07:44:09.908Z,23.48
2023-12-02T07:46:36.343Z,22.90
2023-12-02T07:49:02.742Z,22.30
2023-12-02T07:51:29.170Z,23.30
2023-12-02T07:53:55.558Z,22.38
2023-12-02T07:56:21.905Z,23.80
2023-12-02T07:58:48.341Z,24.15
2023-12-02T08:01:14.741Z,24.60
2023-12-02T08:03:41.087Z,27.73
2023-12-02T08:06:07.723Z,24.15
2023-12-02T08:08:34.173Z,24.23
2023-12-02T08:11:00.670Z,23.42
2023-12-02T08:13:27.191Z,23.65
2023-12-02T08:15:53.639Z,23.23
2023-12-02T08:18:22.249Z,22.55
2023-12-02T08:20:48.616Z,25.20
2023-12-02T08:23:15.131Z,23.73
2023-12-02T08:25:41.512Z,24.20
2023-12-02T08:28:07.931Z,22.08
2023-12-02T08:30:34.384Z,26.42
2023-12-02T08:33:00.741Z,22.58
2023-12-02T08:35:27.102Z,21.10
2023-12-02T08:37:53.523Z,23.95
2023-12-02T08:40:20.021Z,24.17
2023-12-02T08:42:46.456Z,20.80
2023-12-02T08:45:12.834Z,21.65
2023-12-02T08:47:39.234Z,21.15
2023-12-02T08:50:06.434Z,23.23
2023-12-02T08:52:32.910Z,21.17
2023-12-02T08:54:59.320Z,22.27
2023-12-02T08:57:25.704Z,21.73
2023-12-02T08:59:52.111Z,24.27
2023-12-02T09:02:18.540Z,22.42
2023-12-02T09:04:44.981Z,22.52
2023-12-02T09:07:11.375Z,21.33
2023-12-02T09:09:37.722Z,21.73
2023-12-02T09:12:04.280Z,22.05
2023-12-02T09:14:30.675Z,22.48
2023-12-02T09:16:57.244Z,24.95
2023-12-02T09:19:42.342Z,22.73
2023-12-02T09:22:22.446Z,21.10
2023-12-02T09:24:48.855Z,21.23
2023-12-02T09:27:35.173Z,22.65
2023-12-02T09:30:02.262Z,20.50
2023-12-02T09:32:45.327Z,22.27
2023-12-02T09:35:11.886Z,19.70
2023-12-02T09:37:57.585Z,20.17
2023-12-02T09:40:26.946Z,21.55
2023-12-02T09:43:03.812Z,20.40
2023-12-02T09:45:33.446Z,25.20
2023-12-02T09:48:06.549Z,19.77
2023-12-02T09:50:36.058Z,20.48
2023-12-02T09:53:16.059Z,20.83
2023-12-02T09:55:48.063Z,21.27
2023-12-02T09:58:24.437Z,22.10
2023-12-02T10:00:53.499Z,20.95
2023-12-02T10:03:40.093Z,22.73
2023-12-02T10:06:12.705Z,21.60
2023-12-02T10:08:45.348Z,20.02
2023-12-02T10:11:17.804Z,19.23
2023-12-02T10:13:45.588Z,18.27
2023-12-02T10:16:16.809Z,19.05
2023-12-02T10:18:47.823Z,21.00
2023-12-02T10:21:16.606Z,19.52
2023-12-02T10:23:50.715Z,19.63
2023-12-02T10:26:25.001Z,20.20
2023-12-02T10:29:00.779Z,19.08
2023-12-02T10:31:28.849Z,21.90
2023-12-02T10:34:09.741Z,20.58
2023-12-02T10:36:37.062Z,19.95
2023-12-02T10:39:14.432Z,20.38
2023-12-02T10:41:52.621Z,20.30
2023-12-02T10:44:21.425Z,22.15
2023-12-02T10:46:49.206Z,19.98
2023-12-02T10:49:16.187Z,20.38
2023-12-02T10:51:43.690Z,19.00
2023-12-02T10:54:13.322Z,20.33
2023-12-02T10:56:40.512Z,22.23
2023-12-02T10:59:09.196Z,19.67
2023-12-02T11:01:59.709Z,21.85
2023-12-02T11:04:27.059Z,20.87
2023-12-02T11:07:01.815Z,22.23
2023-12-02T11:09:28.323Z,20.52
2023-12-02T11:12:04.520Z,20.60
2023-12-02T11:14:36.906Z,24.83
2023-12-02T11:17:22.108Z,23.57
2023-12-02T11:19:51.602Z,22.42
2023-12-02T11:22:52.194Z,20.45
2023-12-02T11:25:21.962Z,20.33
2023-12-02T11:27:52.566Z,21.08
2023-12-02T11:30:39.262Z,19.20
2023-12-02T11:33:14.592Z,20.65
2023-12-02T11:35:52.862Z,18.90
2023-12-02T11:38:20.268Z,18.60
2023-12-02T11:41:05.135Z,22.17
2023-12-02T11:43:44.055Z,19.23
2023-12-02T11:46:15.897Z,17.98
2023-12-02T11:48:42.352Z,19.63
2023-12-02T11:51:23.518Z,19.35
2023-12-02T11:53:53.123Z,20.45
2023-12-02T11:56:21.274Z,18.20
2023-12-02T11:59:10.811Z,17.75
2023-12-02T12:01:40.418Z,18.40
2023-12-02T12:04:21.205Z,19.45
2023-12-02T12:06:47.675Z,22.17
2023-12-02T12:09:14.134Z,18.58
2023-12-02T12:11:41.516Z,18.30
2023-12-02T12:14:08.935Z,21.10
2023-12-02T12:16:42.554Z,18.98
2023-12-02T12:19:10.038Z,18.88
2023-12-02T12:21:36.546Z,18.70
2023-12-02T12:24:03.067Z,18.40
2023-12-02T12:26:29.566Z,17.17
2023-12-02T12:28:56.517Z,18.92
2023-12-02T12:31:22.928Z,17.97
2023-12-02T12:33:52.919Z,19.50
2023-12-02T12:36:23.170Z,28.48
2023-12-02T12:38:50.452Z,27.60
2023-12-02T12:41:17.090Z,17.50
2023-12-02T12:43:43.448Z,18.23
2023-12-02T12:46:11.700Z,17.23
2023-12-02T12:48:39.478Z,16.80
2023-12-02T12:51:07.958Z,19.35
2023-12-02T12:53:36.693Z,17.65
2023-12-02T12:56:07.742Z,18.08
2023-12-02T12:58:38.809Z,16.98
2023-12-02T13:01:06.037Z,17.58
2023-12-02T13:03:35.453Z,17.45
2023-12-02T13:06:14.478Z,21.42
2023-12-02T13:08:48.801Z,16.90
2023-12-02T13:11:25.431Z,18.10
2023-12-02T13:13:58.914Z,17.98
2023-12-02T13:16:26.967Z,19.23
2023-12-02T13:18:55.819Z,18.50
2023-12-02T13:21:22.715Z,17.92
2023-12-02T13:23:50.455Z,18.92
2023-12-02T13:26:18.194Z,17.98
2023-12-02T13:28:45.420Z,17.88
2023-12-02T13:31:14.017Z,18.88
2023-12-02T13:33:46.490Z,18.67
2023-12-02T13:36:16.464Z,22.63
2023-12-02T13:38:51.183Z,16.73
2023-12-02T13:41:26.008Z,17.42
2023-12-02T13:43:53.170Z,18.67
2023-12-02T13:46:23.001Z,19.73
2023-12-02T13:48:52.434Z,20.75
2023-12-02T13:51:22.268Z,19.17
2023-12-02T13:53:54.077Z,19.38
2023-12-02T13:56:23.887Z,17.27
2023-12-02T13:59:01.985Z,16.77
2023-12-02T14:01:37.589Z,18.27
2023-12-02T14:04:32.127Z,21.10
2023-12-02T14:07:06.742Z,17.73
2023-12-02T14:09:35.121Z,20.75
2023-12-02T14:12:01.519Z,18.63
2023-12-02T14:14:57.231Z,20.52
2023-12-02T14:17:23.594Z,26.58
2023-12-02T14:19:58.168Z,21.88
2023-12-02T14:22:43.038Z,17.98
2023-12-02T14:25:17.398Z,18.33
2023-12-02T14:27:48.419Z,21.45
2023-12-02T14:30:34.980Z,21.73
2023-12-02T14:33:07.726Z,18.65
2023-12-02T14:35:53.171Z,19.23
2023-12-02T14:38:31.739Z,20.23
2023-12-02T14:41:10.416Z,22.88
2023-12-02T14:43:39.802Z,21.20
2023-12-02T14:46:06.285Z,22.60
2023-12-02T14:48:33.446Z,29.77
2023-12-02T14:51:03.207Z,24.27
2023-12-02T14:53:36.319Z,21.73
2023-12-02T14:56:23.025Z,25.10
2023-12-02T14:58:49.487Z,24.80
2023-12-02T15:01:16.059Z,28.35
2023-12-02T15:03:43.303Z,31.17
2023-12-02T15:06:11.670Z,28.85
2023-12-02T15:08:39.820Z,28.13
2023-12-02T15:11:07.051Z,27.02
2023-12-02T15:13:33.597Z,26.02
2023-12-02T15:16:00.128Z,23.73
2023-12-02T15:18:29.010Z,24.15
2023-12-02T15:21:06.158Z,23.05
2023-12-02T15:23:32.739Z,30.27
2023-12-02T15:25:59.694Z,26.88
2023-12-02T15:28:26.066Z,25.05
2023-12-02T15:30:58.048Z,24.58
2023-12-02T15:33:38.439Z,24.98
2023-12-02T15:36:05.759Z,35.83
2023-12-02T15:38:32.468Z,26.15
2023-12-02T15:40:59.735Z,28.73
2023-12-02T15:43:26.604Z,28.02
2023-12-02T15:45:53.068Z,26.67
2023-12-02T15:48:19.525Z,25.67
2023-12-02T15:50:46.000Z,29.23
2023-12-02T15:53:12.501Z,31.48
2023-12-02T15:55:39.506Z,28.97
2023-12-02T15:58:05.957Z,30.23
2023-12-02T16:00:32.322Z,31.30
2023-12-02T16:02:59.326Z,34.58
2023-12-02T16:05:26.546Z,26.35
2023-12-02T16:07:53.517Z,27.48
2023-12-02T16:10:20.743Z,25.95
2023-12-02T16:12:48.942Z,24.25
2023-12-02T16:15:15.617Z,26.73
2023-12-02T16:17:42.978Z,23.33
2023-12-02T16:20:12.695Z,24.02
2023-12-02T16:22:39.176Z,23.85
2023-12-02T16:25:09.343Z,23.88
2023-12-02T16:27:36.018Z,23.70
2023-12-02T16:30:04.096Z,25.67
2023-12-02T16:32:31.882Z,27.45
2023-12-02T16:34:58.475Z,25.58
2023-12-02T16:37:24.898Z,25.90
2023-12-02T16:39:51.986Z,26.30
2023-12-02T16:42:18.449Z,28.30
2023-12-02T16:44:44.865Z,27.08
2023-12-02T16:47:28.543Z,26.35
2023-12-02T16:49:54.989Z,26.40
2023-12-02T16:52:21.428Z,26.02
2023-12-02T16:54:47.761Z,27.53
2023-12-02T16:57:20.117Z,28.45
2023-12-02T16:59:49.962Z,29.38
2023-12-02T17:02:23.793Z,28.10
2023-12-02T17:04:50.349Z,27.80
2023-12-02T17:07:16.729Z,30.02
2023-12-02T17:09:44.773Z,28.65
2023-12-02T17:12:12.001Z,29.48
2023-12-02T17:14:38.863Z,32.15
2023-12-02T17:17:06.456Z,30.60
2023-12-02T17:19:33.649Z,33.83
2023-12-02T17:22:01.726Z,31.30
2023-12-02T17:24:30.363Z,30.10
2023-12-02T17:26:57.298Z,31.37
2023-12-02T17:29:27.435Z,31.38
2023-12-02T17:31:54.476Z,31.30
2023-12-02T17:34:21.179Z,29.67
2023-12-02T17:36:48.219Z,31.85
2023-12-02T17:39:14.866Z,31.77
2023-12-02T17:41:41.741Z,31.52
2023-12-02T17:44:08.279Z,34.93
2023-12-02T17:46:35.151Z,32.20
2023-12-02T17:49:01.891Z,34.20
2023-12-02T17:51:29.113Z,31.95
2023-12-02T17:53:56.449Z,32.08
2023-12-02T17:56:22.866Z,32.83
2023-12-02T17:58:49.542Z,33.88
2023-12-02T18:01:16.837Z,32.90
2023-12-02T18:03:43.240Z,33.25
2023-12-02T18:06:09.710Z,34.17
2023-12-02T18:08:36.130Z,35.65
2023-12-02T18:11:02.675Z,34.92
2023-12-02T18:13:30.392Z,37.63
2023-12-02T18:15:56.931Z,39.35
2023-12-02T18:18:24.462Z,36.83
2023-12-02T18:20:53.038Z,37.33
2023-12-02T18:23:21.300Z,39.45
2023-12-02T18:25:48.662Z,37.05
2023-12-02T18:28:15.146Z,36.90
2023-12-02T18:30:41.910Z,37.72
2023-12-02T18:33:08.959Z,37.42
2023-12-02T18:35:35.408Z,37.10
2023-12-02T18:38:01.807Z,38.15
2023-12-02T18:40:32.356Z,37.33
2023-12-02T18:42:59.139Z,36.17
2023-12-02T18:45:25.832Z,39.05
2023-12-02T18:47:52.854Z,38.88
2023-12-02T18:50:19.376Z,37.13
2023-12-02T18:52:46.609Z,39.60
2023-12-02T18:55:13.001Z,38.63
2023-12-02T18:57:39.496Z,36.93
2023-12-02T19:00:06.750Z,38.40
2023-12-02T19:02:33.983Z,36.78
2023-12-02T19:05:00.508Z,39.15
2023-12-02T19:07:26.975Z,37.55
2023-12-02T19:09:53.452Z,39.45
2023-12-02T19:12:21.059Z,37.63
2023-12-02T19:14:47.485Z,40.58
2023-12-02T19:17:13.888Z,41.95
2023-12-02T19:19:40.392Z,39.83
2023-12-02T19:22:06.828Z,38.60
2023-12-02T19:24:33.292Z,43.08
2023-12-02T19:26:59.750Z,38.97
2023-12-02T19:29:26.090Z,39.55
2023-12-02T19:31:52.487Z,39.13
2023-12-02T19:34:18.913Z,39.35
2023-12-02T19:36:45.336Z,42.22
2023-12-02T19:39:12.214Z,39.80
2023-12-02T19:41:38.625Z,41.15
2023-12-02T19:44:05.801Z,40.22
2023-12-02T19:46:32.202Z,41.08
2023-12-02T19:48:58.575Z,40.67
2023-12-02T19:51:25.277Z,41.45
2023-12-02T19:53:52.620Z,41.95
2023-12-02T19:56:19.014Z,43.03
2023-12-02T19:58:45.347Z,42.45
2023-12-02T20:01:12.382Z,44.10
2023-12-02T20:03:38.730Z,44.83
2023-12-02T20:06:05.303Z,43.75
2023-12-02T20:08:32.378Z,43.70
2023-12-02T20:10:58.835Z,44.40
2023-12-02T20:13:25.169Z,43.97
2023-12-02T20:15:51.497Z,43.80
2023-12-02T20:18:18.010Z,48.55
2023-12-02T20:20:46.203Z,46.13
2023-12-02T20:23:16.020Z,44.83
2023-12-02T20:25:42.391Z,47.97
2023-12-02T20:28:08.831Z,43.50
2023-12-02T20:30:35.338Z,43.97
2023-12-02T20:33:01.809Z,47.30
2023-12-02T20:35:28.183Z,45.80
2023-12-02T20:37:54.552Z,45.60
2023-12-02T20:40:20.897Z,46.40
2023-12-02T20:42:48.509Z,47.13
2023-12-02T20:45:15.016Z,49.05
2023-12-02T20:47:41.427Z,45.60
2023-12-02T20:50:08.023Z,46.47
2023-12-02T20:52:34.471Z,46.00
2023-12-02T20:55:00.908Z,49.35
2023-12-02T20:57:27.327Z,46.95
2023-12-02T20:59:53.736Z,47.83
2023-12-02T21:02:20.129Z,47.88
2023-12-02T21:04:46.486Z,52.33
2023-12-02T21:07:12.885Z,46.50
2023-12-02T21:09:41.017Z,48.10
2023-12-02T21:12:07.717Z,48.00
2023-12-02T21:14:34.128Z,49.63
2023-12-02T21:17:00.727Z,49.08
2023-12-02T21:19:27.321Z,48.85
2023-12-02T21:21:53.825Z,47.65
2023-12-02T21:24:20.366Z,47.33
2023-12-02T21:26:47.608Z,47.50
2023-12-02T21:29:14.125Z,48.55
2023-12-02T21:31:40.670Z,51.70
2023-12-02T21:34:08.839Z,49.13
2023-12-02T21:36:35.278Z,46.80
2023-12-02T21:39:01.707Z,50.87
2023-12-02T21:41:28.108Z,49.67
2023-12-02T21:43:56.578Z,46.53
2023-12-02T21:46:28.346Z,51.10
2023-12-02T21:48:58.638Z,50.80
2023-12-02T21:51:31.793Z,50.60
2023-12-02T21:54:05.137Z,50.03
2023-12-02T21:56:37.727Z,51.03
2023-12-02T21:59:07.938Z,51.75
2023-12-02T22:01:38.397Z,51.30
2023-12-02T22:04:11.551Z,50.92
2023-12-02T22:06:47.436Z,53.92
2023-12-02T22:09:30.462Z,51.83
2023-12-02T22:11:57.208Z,52.08
2023-12-02T22:14:24.880Z,54.65
2023-12-02T22:16:57.209Z,55.72
2023-12-02T22:19:23.862Z,52.00
2023-12-02T22:21:51.259Z,51.03
2023-12-02T22:24:17.859Z,52.08
2023-12-02T22:26:44.484Z,51.75
2023-12-02T22:29:11.332Z,52.30
2023-12-02T22:31:38.569Z,52.90
2023-12-02T22:34:13.476Z,53.40
2023-12-02T22:36:44.532Z,54.33
2023-12-02T22:39:23.559Z,51.25
2023-12-02T22:41:52.043Z,51.90
2023-12-02T22:44:21.670Z,53.47
2023-12-02T22:46:49.856Z,53.83
2023-12-02T22:49:21.767Z,56.60
2023-12-02T22:51:49.106Z,52.78
2023-12-02T22:54:30.869Z,54.15
2023-12-02T22:56:57.560Z,54.20
2023-12-02T22:59:24.551Z,52.20
2023-12-02T23:01:53.696Z,54.22
2023-12-02T23:04:29.336Z,52.72
2023-12-02T23:06:55.734Z,56.57
2023-12-02T23:09:37.433Z,51.50
2023-12-02T23:12:05.404Z,57.00
2023-12-02T23:14:38.370Z,53.42
2023-12-02T23:17:04.838Z,55.38
2023-12-02T23:19:35.794Z,57.97
2023-12-02T23:22:02.743Z,55.72
2023-12-02T23:24:32.965Z,55.75
2023-12-02T23:26:59.476Z,56.72
2023-12-02T23:29:26.304Z,55.40
2023-12-02T23:31:52.697Z,54.25
2023-12-02T23:34:20.084Z,56.25
2023-12-02T23:36:46.572Z,55.27
2023-12-02T23:39:33.267Z,54.75
2023-12-02T23:42:00.722Z,59.65
2023-12-02T23:44:46.912Z,55.97
2023-12-02T23:47:17.554Z,56.45
2023-12-02T23:49:43.948Z,54.55
2023-12-02T23:52:10.377Z,59.35
2023-12-02T23:54:36.786Z,58.72
2023-12-02T23:57:03.276Z,58.23
2023-12-02T23:59:29.749Z,56.67
